Time;durP1;ratioP1;P1;durP2;ratioP2;P2;SDS_P1;SDS_P2;PMS_P1;PMS_P2;Temp;Humidity;BMP_temperature;BMP_pressure;BME280_temperature;BME280_humidity;BME280_pressure;Samples;Min_cycle;Max_cycle;Signal;HPM_P1;HPM_P2
2022/11/06 00:00:31;;;;;;;10.60;6.25;;;;;;;7.21;100.00;101300.41;6270792;22;20042;-84
2022/11/06 00:02:58;;;;;;;11.30;6.22;;;;;;;7.25;100.00;101302.03;6270149;22;20008;-84
2022/11/06 00:08:08;;;;;;;12.50;6.60;;;;;;;7.29;100.00;101306.34;6269570;22;20518;-84
2022/11/06 00:10:33;;;;;;;11.98;5.88;;;;;;;7.30;100.00;101313.34;6273743;22;19987;-84
2022/11/06 00:12:59;;;;;;;9.90;5.80;;;;;;;7.32;100.00;101316.84;6272360;22;20078;-83
2022/11/06 00:15:24;;;;;;;11.20;5.90;;;;;;;7.33;100.00;101313.28;6271291;22;20022;-84
2022/11/06 00:17:49;;;;;;;11.13;5.15;;;;;;;7.33;100.00;101317.69;6273361;22;19996;-84
2022/11/06 00:20:15;;;;;;;10.75;5.07;;;;;;;7.29;100.00;101316.91;6273075;22;20409;-83
2022/11/06 00:22:41;;;;;;;9.63;4.57;;;;;;;7.27;100.00;101320.50;6272430;22;19995;-84
2022/11/06 00:25:06;;;;;;;7.18;4.60;;;;;;;7.29;100.00;101308.13;6272474;22;20014;-85
2022/11/06 00:27:36;;;;;;;9.13;5.13;;;;;;;7.21;100.00;101306.56;6273619;22;20043;-84
2022/11/06 00:30:01;;;;;;;10.65;5.65;;;;;;;7.20;100.00;101301.31;6273312;22;20007;-84
2022/11/06 00:32:26;;;;;;;10.75;6.05;;;;;;;7.12;100.00;101298.03;6271093;22;20035;-84
2022/11/06 00:34:52;;;;;;;9.85;5.63;;;;;;;7.08;100.00;101312.25;6272000;22;20049;-84
2022/11/06 00:37:17;;;;;;;9.98;5.50;;;;;;;7.02;100.00;101308.00;6272545;22;20000;-85
2022/11/06 00:39:42;;;;;;;8.98;5.75;;;;;;;6.98;100.00;101286.06;6272739;22;20019;-85
2022/11/06 00:42:08;;;;;;;11.90;5.47;;;;;;;6.96;100.00;101295.81;6271451;22;20082;-83
2022/11/06 00:44:33;;;;;;;8.90;5.28;;;;;;;6.97;100.00;101300.19;6271819;22;20006;-84
2022/11/06 00:46:58;;;;;;;8.57;5.18;;;;;;;6.91;100.00;101297.72;6269516;22;20018;-84
2022/11/06 00:49:24;;;;;;;11.73;5.30;;;;;;;6.88;100.00;101304.88;6270735;22;20012;-84
2022/11/06 00:51:49;;;;;;;9.57;5.57;;;;;;;6.87;100.00;101295.22;6271732;22;20007;-84
2022/11/06 00:54:14;;;;;;;8.70;5.07;;;;;;;6.84;100.00;101296.16;6270724;22;20022;-85
2022/11/06 00:56:40;;;;;;;9.98;4.90;;;;;;;6.81;100.00;101293.59;6272282;22;20481;-84
2022/11/06 00:59:07;;;;;;;9.18;4.50;;;;;;;6.81;100.00;101283.00;6271411;22;20012;-84
2022/11/06 01:01:35;;;;;;;9.73;4.78;;;;;;;6.80;100.00;101283.94;6270930;22;20078;-83
2022/11/06 01:04:02;;;;;;;9.95;4.88;;;;;;;6.81;100.00;101288.28;6268865;22;20016;-83
2022/11/06 01:06:37;;;;;;;8.35;5.05;;;;;;;6.84;100.00;101293.50;6271608;22;20004;-85
2022/11/06 01:09:03;;;;;;;11.25;4.95;;;;;;;6.86;100.00;101283.78;6271880;22;20008;-85
2022/11/06 01:11:31;;;;;;;10.82;5.15;;;;;;;6.88;100.00;101278.41;6269228;22;20087;-84
2022/11/06 01:13:58;;;;;;;8.50;4.68;;;;;;;6.86;100.00;101281.13;6268027;22;20004;-84
2022/11/06 01:16:24;;;;;;;12.80;5.40;;;;;;;6.82;100.00;101276.81;6292994;22;20548;-84
2022/11/06 01:18:51;;;;;;;10.23;5.03;;;;;;;6.82;100.00;101279.47;6267131;22;20003;-85
2022/11/06 01:21:19;;;;;;;7.75;4.90;;;;;;;6.78;100.00;101279.59;6268771;22;20010;-85
2022/11/06 01:23:46;;;;;;;9.95;4.97;;;;;;;6.78;100.00;101277.81;6270281;22;20000;-85
2022/11/06 01:26:13;;;;;;;10.25;5.20;;;;;;;6.77;100.00;101275.19;6270796;22;19999;-85
2022/11/06 01:28:40;;;;;;;10.43;5.35;;;;;;;6.74;100.00;101271.75;6269581;22;20473;-85
2022/11/06 01:31:08;;;;;;;7.70;5.07;;;;;;;6.67;100.00;101272.81;6269994;22;20467;-85
2022/11/06 01:33:34;;;;;;;11.00;5.30;;;;;;;6.74;100.00;101263.81;6269652;22;20026;-84
2022/11/06 01:35:59;;;;;;;9.60;5.75;;;;;;;6.74;100.00;101266.47;6268823;22;20008;-84
2022/11/06 01:38:26;;;;;;;10.52;5.30;;;;;;;6.80;100.00;101265.41;6269997;22;20430;-85
2022/11/06 01:40:51;;;;;;;8.18;5.15;;;;;;;6.80;100.00;101252.16;6271312;22;20004;-85
2022/11/06 01:43:23;;;;;;;10.18;5.30;;;;;;;6.93;100.00;101252.69;6270819;22;20021;-84
2022/11/06 01:45:51;;;;;;;8.90;5.07;;;;;;;6.98;100.00;101248.13;6270310;22;20011;-84
2022/11/06 01:48:20;;;;;;;9.30;4.57;;;;;;;7.08;100.00;101248.72;6269324;22;20003;-85
2022/11/06 01:50:50;;;;;;;9.60;4.93;;;;;;;7.08;100.00;101238.16;6271013;22;20007;-84
2022/11/06 01:53:16;;;;;;;10.30;4.70;;;;;;;7.14;100.00;101245.88;6271527;22;20007;-85
2022/11/06 01:55:45;;;;;;;8.82;4.88;;;;;;;7.13;100.00;101242.38;6269659;22;20503;-84
2022/11/06 01:58:14;;;;;;;8.13;4.72;;;;;;;7.17;100.00;101240.50;6273629;22;20000;-84
2022/11/06 02:00:40;;;;;;;10.50;5.00;;;;;;;7.14;100.00;101232.66;6272152;22;20077;-84
2022/11/06 02:03:06;;;;;;;10.32;4.93;;;;;;;7.19;100.00;101234.25;6273684;22;20563;-84
2022/11/06 02:05:33;;;;;;;8.20;4.10;;;;;;;7.21;100.00;101235.06;6273264;22;20043;-84
2022/11/06 02:08:00;;;;;;;8.55;4.25;;;;;;;7.29;100.00;101236.63;6269522;22;20011;-83
2022/11/06 02:10:26;;;;;;;8.43;4.72;;;;;;;7.36;100.00;101232.88;6270611;22;20082;-83
2022/11/06 02:13:30;;;;;;;8.77;3.92;;;;;;;7.45;100.00;101228.16;6269272;22;20011;-83
2022/11/06 02:16:19;;;;;;;10.30;3.97;;;;;;;7.47;100.00;101221.00;6230529;22;20007;-85
2022/11/06 02:19:05;;;;;;;10.43;4.30;;;;;;;7.51;100.00;101220.91;6270414;22;20355;-84
2022/11/06 02:22:14;;;;;;;5.97;4.25;;;;;;;7.50;100.00;101212.09;6270025;22;20079;-84
2022/11/06 02:25:01;;;;;;;7.10;3.92;;;;;;;7.58;100.00;101223.31;6269957;22;20004;-83
2022/11/06 02:27:28;;;;;;;8.93;4.03;;;;;;;7.60;100.00;101217.97;6271846;22;20025;-84
2022/11/06 02:30:10;;;;;;;10.85;4.32;;;;;;;7.63;100.00;101212.56;6271481;22;20015;-84
2022/11/06 02:32:43;;;;;;;9.48;4.50;;;;;;;7.68;100.00;101218.59;6272366;22;20010;-84
2022/11/06 02:35:25;;;;;;;10.38;4.22;;;;;;;7.72;100.00;101212.25;6271156;22;20090;-83
2022/11/06 02:37:56;;;;;;;6.60;3.85;;;;;;;7.75;100.00;101209.53;6271451;22;20378;-83
2022/11/06 02:40:24;;;;;;;8.52;4.35;;;;;;;7.76;100.00;101211.25;6271476;22;20000;-84
2022/11/06 02:42:54;;;;;;;10.40;4.03;;;;;;;7.80;100.00;101217.31;6295763;22;20007;-84
2022/11/06 02:45:22;;;;;;;8.15;3.90;;;;;;;7.80;99.98;101201.41;6272103;22;20007;-83
2022/11/06 02:47:53;;;;;;;8.85;4.10;;;;;;;7.77;100.00;101207.66;6274460;22;20004;-84
2022/11/06 02:50:27;;;;;;;10.63;4.20;;;;;;;7.80;100.00;101210.22;6271666;22;20049;-84
2022/11/06 02:53:01;;;;;;;12.25;4.10;;;;;;;7.81;100.00;101198.69;6270590;22;20004;-83
2022/11/06 02:55:37;;;;;;;6.88;3.92;;;;;;;7.77;100.00;101205.03;6270418;22;20015;-85
2022/11/06 02:58:12;;;;;;;8.27;3.47;;;;;;;7.74;100.00;101198.06;6271976;22;20007;-84
2022/11/06 03:00:40;;;;;;;9.05;4.28;;;;;;;7.66;100.00;101194.81;6273457;22;20004;-84
2022/11/06 03:03:19;;;;;;;9.27;3.80;;;;;;;7.65;100.00;101198.38;6270474;22;20438;-85
2022/11/06 03:05:53;;;;;;;10.77;3.90;;;;;;;7.68;100.00;101210.63;6272278;22;20033;-84
2022/11/06 03:08:30;;;;;;;;;;;;;;;7.69;100.00;101220.31;6271783;22;20022;-85
2022/11/06 03:11:13;;;;;;;9.98;4.15;;;;;;;7.66;100.00;101220.44;6271608;22;20313;-85
2022/11/06 03:13:57;;;;;;;9.70;4.30;;;;;;;7.69;100.00;101222.97;6271660;22;20008;-83
2022/11/06 03:16:41;;;;;;;;;;;;;;;7.73;100.00;101232.53;6273440;22;20090;-83
2022/11/06 03:19:32;;;;;;;6.40;3.80;;;;;;;7.80;100.00;101212.88;6271544;22;19913;-82
2022/11/06 03:22:08;;;;;;;7.93;3.85;;;;;;;7.81;100.00;101192.53;6270040;22;20007;-84
2022/11/06 03:24:44;;;;;;;6.72;3.95;;;;;;;7.76;100.00;101198.00;6270156;22;20038;-84
2022/11/06 03:27:17;;;;;;;10.60;4.13;;;;;;;7.72;100.00;101199.03;6270209;22;20099;-83
2022/11/06 03:29:51;;;;;;;8.15;4.05;;;;;;;7.69;100.00;101184.09;6272064;22;20008;-84
2022/11/06 03:32:27;;;;;;;10.15;4.05;;;;;;;7.71;100.00;101192.00;6271022;22;20035;-83
2022/11/06 03:34:58;;;;;;;7.72;3.90;;;;;;;7.71;100.00;101181.41;6269341;22;20620;-84
2022/11/06 03:37:35;;;;;;;8.18;4.07;;;;;;;7.66;100.00;101178.03;6272788;22;20353;-84
2022/11/06 03:40:05;;;;;;;9.30;3.97;;;;;;;7.57;100.00;101179.22;6271700;22;20511;-84
2022/11/06 03:42:30;;;;;;;8.82;4.20;;;;;;;7.48;100.00;101172.44;6271241;22;20045;-83
2022/11/06 03:44:59;;;;;;;9.60;4.13;;;;;;;7.41;100.00;101175.34;6270019;22;20007;-84
2022/11/06 03:47:43;;;;;;;9.55;3.90;;;;;;;7.37;100.00;101171.06;6272469;22;20380;-85
2022/11/06 03:50:15;;;;;;;8.68;4.82;;;;;;;7.30;100.00;101172.16;6271936;22;20008;-84
2022/11/06 03:52:52;;;;;;;10.50;3.83;;;;;;;7.20;100.00;101159.22;6270064;22;20070;-83
2022/11/06 03:55:22;;;;;;;7.80;3.78;;;;;;;7.22;100.00;101156.50;6271529;22;20018;-84
2022/11/06 03:57:57;;;;;;;9.43;3.75;;;;;;;7.25;100.00;101151.13;6273319;22;20091;-84
2022/11/06 04:00:22;;;;;;;9.18;3.75;;;;;;;7.33;100.00;101145.59;6271393;22;20073;-83
2022/11/06 04:03:03;;;;;;;5.72;3.60;;;;;;;7.37;100.00;101142.78;6270158;22;20031;-83
2022/11/06 04:05:32;;;;;;;13.05;4.60;;;;;;;7.43;100.00;101134.63;6272293;22;20426;-84
2022/11/06 04:16:18;;;;;;;6.57;3.67;;;;;;;7.50;100.00;101130.00;6272200;22;20532;-84
2022/11/06 04:18:43;;;;;;;8.32;3.75;;;;;;;7.51;100.00;101125.56;6272654;22;20027;-84
2022/11/06 04:21:31;;;;;;;8.80;3.90;;;;;;;7.52;100.00;101116.69;6270923;22;20068;-83
2022/11/06 04:27:12;;;;;;;9.27;3.92;;;;;;;7.55;100.00;101109.50;6271484;22;20357;-83
2022/11/06 04:29:44;;;;;;;7.45;3.70;;;;;;;7.56;100.00;101100.63;6273383;22;20023;-84
2022/11/06 04:32:31;;;;;;;14.15;4.18;;;;;;;7.60;100.00;101093.47;6269938;22;20078;-84
2022/11/06 04:35:06;;;;;;;10.15;3.78;;;;;;;7.64;100.00;101095.94;6270549;22;20007;-83
2022/11/06 04:37:41;;;;;;;8.35;3.70;;;;;;;7.64;100.00;101095.09;6273615;22;20444;-84
2022/11/06 04:40:12;;;;;;;8.85;4.10;;;;;;;7.65;100.00;101097.69;6271642;22;20531;-84
2022/11/06 04:42:56;;;;;;;9.25;3.90;;;;;;;7.65;100.00;101089.75;6270600;22;20010;-84
2022/11/06 04:45:42;;;;;;;7.28;3.78;;;;;;;7.62;100.00;101084.56;6270207;22;20639;-84
2022/11/06 04:48:09;;;;;;;7.22;3.58;;;;;;;7.56;100.00;101079.44;6269453;22;20081;-84
2022/11/06 04:50:53;;;;;;;7.47;3.60;;;;;;;7.50;100.00;101084.97;6270482;22;20007;-83
2022/11/06 04:53:20;;;;;;;10.68;3.60;;;;;;;7.43;100.00;101081.66;6271172;22;20061;-83
2022/11/06 04:55:47;;;;;;;7.88;3.72;;;;;;;7.39;100.00;101082.69;6271806;22;20013;-84
2022/11/06 04:58:13;;;;;;;7.63;3.88;;;;;;;7.35;100.00;101089.00;6270704;22;20053;-84
2022/11/06 05:00:43;;;;;;;8.65;4.20;;;;;;;7.34;100.00;101094.34;6270735;22;20015;-84
2022/11/06 05:03:08;;;;;;;4.78;3.53;;;;;;;7.28;100.00;101082.19;6270322;22;20075;-83
2022/11/06 05:05:33;;;;;;;7.35;4.00;;;;;;;7.24;100.00;101083.22;6271120;22;20004;-84
2022/11/06 05:07:59;;;;;;;10.02;4.20;;;;;;;7.18;100.00;101072.81;6270214;22;20418;-83
2022/11/06 05:10:24;;;;;;;5.47;3.30;;;;;;;7.19;100.00;101078.06;6268690;22;20004;-83
2022/11/06 05:12:49;;;;;;;11.15;4.53;;;;;;;7.18;100.00;101078.09;6271265;22;20034;-84
2022/11/06 05:15:15;;;;;;;8.13;3.88;;;;;;;7.18;100.00;101084.25;6269565;22;20031;-84
2022/11/06 05:17:40;;;;;;;9.65;4.10;;;;;;;7.14;100.00;101073.81;6271034;22;20075;-85
2022/11/06 05:20:05;;;;;;;8.45;4.07;;;;;;;7.12;100.00;101075.66;6268762;22;20011;-84
2022/11/06 05:25:15;;;;;;;7.03;3.92;;;;;;;7.09;100.00;101078.41;6270019;22;20022;-84
2022/11/06 05:27:40;;;;;;;8.40;4.03;;;;;;;6.98;100.00;101063.75;6272067;22;20008;-84
2022/11/06 05:30:06;;;;;;;9.75;4.28;;;;;;;7.04;100.00;101062.69;6268433;22;20094;-84
2022/11/06 05:32:32;;;;;;;8.48;4.13;;;;;;;7.05;100.00;101058.25;6272025;22;20027;-85
2022/11/06 05:34:57;;;;;;;11.93;4.22;;;;;;;7.03;100.00;101053.03;6270918;22;20562;-84
2022/11/06 05:37:23;;;;;;;8.63;4.32;;;;;;;7.02;100.00;101061.00;6272122;22;20034;-84
2022/11/06 05:39:48;;;;;;;9.00;5.18;;;;;;;6.95;100.00;101068.28;6270935;22;20014;-85
2022/11/06 05:42:14;;;;;;;10.50;5.20;;;;;;;6.89;100.00;101055.22;6271157;22;20003;-85
2022/11/06 05:44:39;;;;;;;6.35;4.15;;;;;;;6.84;100.00;101059.81;6270732;22;20436;-84
2022/11/06 05:47:04;;;;;;;10.23;4.82;;;;;;;6.81;100.00;101058.13;6268557;22;20110;-83
2022/11/06 05:49:29;;;;;;;8.48;4.10;;;;;;;6.79;100.00;101046.72;6268715;22;20757;-84
2022/11/06 05:51:55;;;;;;;9.50;4.15;;;;;;;6.80;100.00;101053.75;6269656;22;20073;-83
2022/11/06 05:54:20;;;;;;;9.80;4.05;;;;;;;6.86;100.00;101042.13;6269663;22;20006;-84
2022/11/06 05:56:45;;;;;;;9.15;4.45;;;;;;;6.94;100.00;101046.25;6269747;22;20011;-84
2022/11/06 05:59:11;;;;;;;7.28;4.32;;;;;;;6.97;100.00;101040.84;6270398;22;20168;-84
2022/11/06 06:01:37;;;;;;;6.53;4.15;;;;;;;7.03;100.00;101039.78;6270562;22;20465;-84
2022/11/06 06:04:02;;;;;;;10.13;4.70;;;;;;;7.03;100.00;101042.44;6270359;22;20031;-84
2022/11/06 06:06:28;;;;;;;8.90;4.47;;;;;;;6.97;100.00;101038.19;6273048;22;20007;-84
2022/11/06 06:08:53;;;;;;;8.75;4.60;;;;;;;6.95;100.00;101044.47;6270628;22;20022;-83
2022/11/06 06:11:18;;;;;;;9.25;4.43;;;;;;;6.97;100.00;101043.47;6269899;22;20410;-84
2022/11/06 06:13:43;;;;;;;7.32;3.85;;;;;;;6.92;100.00;101045.41;6270989;22;20025;-85
2022/11/06 06:16:09;;;;;;;7.03;3.95;;;;;;;6.91;100.00;101041.06;6272247;22;20004;-84
2022/11/06 06:18:34;;;;;;;8.85;3.83;;;;;;;6.92;100.00;101041.91;6273631;22;20014;-85
2022/11/06 06:20:59;;;;;;;10.98;4.40;;;;;;;6.90;100.00;101039.31;6271365;22;20183;-83
2022/11/06 06:23:25;;;;;;;8.77;3.50;;;;;;;6.92;100.00;101029.53;6272063;22;19995;-84
2022/11/06 06:25:50;;;;;;;6.68;3.90;;;;;;;6.98;100.00;101021.41;6274086;22;20003;-84
2022/11/06 06:28:15;;;;;;;8.77;4.13;;;;;;;7.12;100.00;101025.38;6272502;22;20018;-84
2022/11/06 06:30:40;;;;;;;6.82;4.15;;;;;;;7.18;100.00;101022.50;6272694;22;20657;-83
2022/11/06 06:33:06;;;;;;;6.45;3.80;;;;;;;7.25;100.00;101024.03;6270362;22;20079;-84
2022/11/06 06:35:32;;;;;;;9.52;3.83;;;;;;;7.29;100.00;101023.03;6273016;22;19996;-84
2022/11/06 06:37:58;;;;;;;9.20;3.90;;;;;;;7.31;100.00;101037.06;6273206;22;20003;-83
2022/11/06 06:40:23;;;;;;;9.05;3.47;;;;;;;7.33;100.00;101035.25;6271376;22;20064;-83
2022/11/06 06:42:49;;;;;;;5.78;3.90;;;;;;;7.40;100.00;101036.75;6271543;22;20004;-83
2022/11/06 06:45:15;;;;;;;7.10;3.47;;;;;;;7.45;100.00;101048.06;6273475;22;19999;-83
2022/11/06 06:47:40;;;;;;;5.57;3.40;;;;;;;7.50;100.00;101047.91;6273535;22;20015;-84
2022/11/06 06:50:06;;;;;;;9.65;3.72;;;;;;;7.54;100.00;101044.22;6270303;22;20011;-84
2022/11/06 06:52:32;;;;;;;8.18;3.85;;;;;;;7.55;100.00;101043.28;6273455;22;20107;-84
2022/11/06 06:54:57;;;;;;;7.68;4.00;;;;;;;7.57;100.00;101043.25;6268650;22;20007;-85
2022/11/06 06:57:22;;;;;;;7.45;3.28;;;;;;;7.61;100.00;101034.28;6272491;22;20351;-85
2022/11/06 06:59:48;;;;;;;8.75;3.40;;;;;;;7.69;100.00;101034.84;6271947;22;20011;-83
2022/11/06 07:02:13;;;;;;;8.82;3.88;;;;;;;7.74;100.00;101035.56;6273503;22;20025;-84
2022/11/06 07:04:38;;;;;;;10.65;3.75;;;;;;;7.80;100.00;101035.34;6274630;22;20015;-84
2022/11/06 07:07:04;;;;;;;6.65;3.35;;;;;;;7.81;100.00;101028.25;6275344;22;20453;-84
2022/11/06 07:09:30;;;;;;;8.43;3.47;;;;;;;7.80;100.00;101016.78;6274508;22;20004;-84
2022/11/06 07:11:56;;;;;;;7.75;3.67;;;;;;;7.85;100.00;101027.22;6275379;22;20003;-84
2022/11/06 07:14:21;;;;;;;9.45;3.75;;;;;;;7.90;100.00;101031.44;6276458;22;20004;-86
2022/11/06 07:16:46;;;;;;;6.32;3.40;;;;;;;7.92;100.00;101029.59;6274134;22;20011;-84
2022/11/06 07:19:12;;;;;;;7.72;3.90;;;;;;;7.94;100.00;101026.88;6271122;22;20003;-85
2022/11/06 07:21:37;;;;;;;7.80;3.13;;;;;;;7.97;100.00;101027.63;6271119;22;20003;-84
2022/11/06 07:24:02;;;;;;;7.03;3.30;;;;;;;8.07;100.00;101038.78;6272189;22;20010;-84
2022/11/06 07:26:28;;;;;;;9.88;3.67;;;;;;;8.12;100.00;101033.28;6271990;22;20512;-84
2022/11/06 07:28:53;;;;;;;6.63;3.55;;;;;;;8.14;100.00;101027.00;6270791;22;20053;-84
2022/11/06 07:31:18;;;;;;;5.28;2.90;;;;;;;8.18;100.00;101036.56;6271295;22;20031;-84
2022/11/06 07:33:43;;;;;;;5.97;3.42;;;;;;;8.23;100.00;101033.72;6272247;22;20083;-84
2022/11/06 07:36:12;;;;;;;7.35;3.53;;;;;;;8.24;100.00;101031.03;6274162;22;20004;-83
2022/11/06 07:38:39;;;;;;;11.57;3.40;;;;;;;8.29;100.00;101041.47;6271342;22;20479;-82
2022/11/06 07:41:08;;;;;;;6.40;3.17;;;;;;;8.33;100.00;101050.19;6272021;22;20022;-83
2022/11/06 07:43:33;;;;;;;9.75;3.95;;;;;;;8.32;100.00;101043.13;6274735;22;20027;-84
2022/11/06 07:46:00;;;;;;;6.15;3.13;;;;;;;8.28;100.00;101041.50;6274192;22;20463;-84
2022/11/06 07:48:26;;;;;;;8.27;3.50;;;;;;;8.23;100.00;101029.31;6273753;22;20004;-84
2022/11/06 07:50:51;;;;;;;5.45;3.30;;;;;;;8.20;100.00;101023.25;6271186;22;20440;-84
2022/11/06 07:53:17;;;;;;;5.00;3.20;;;;;;;8.22;100.00;101024.06;6272802;22;20030;-85
2022/11/06 07:55:49;;;;;;;6.85;3.08;;;;;;;8.34;100.00;101030.69;6271927;22;20076;-84
2022/11/06 07:58:15;;;;;;;7.05;3.55;;;;;;;8.41;100.00;101014.50;6272216;22;20129;-83
2022/11/06 08:00:45;;;;;;;7.10;3.30;;;;;;;8.52;100.00;100999.94;6270449;22;19999;-84
2022/11/06 08:03:10;;;;;;;6.43;3.25;;;;;;;8.69;99.45;100997.47;6266453;22;20065;-82
2022/11/06 08:05:35;;;;;;;5.47;3.00;;;;;;;8.82;98.45;101000.50;6270941;22;20329;-83
2022/11/06 08:08:01;;;;;;;10.10;3.78;;;;;;;8.93;97.87;101001.78;6270347;22;20090;-84
2022/11/06 08:10:26;;;;;;;7.22;3.05;;;;;;;8.95;97.05;101009.69;6270622;22;20011;-83
2022/11/06 08:12:51;;;;;;;5.80;3.10;;;;;;;8.92;97.01;101008.03;6271644;22;20079;-84
2022/11/06 08:15:16;;;;;;;5.43;3.03;;;;;;;8.92;96.94;100997.41;6270296;22;20003;-83
2022/11/06 08:17:42;;;;;;;7.43;2.80;;;;;;;8.91;96.92;100985.06;6271191;22;20419;-84
2022/11/06 08:20:08;;;;;;;5.28;2.88;;;;;;;9.03;96.64;100998.72;6269690;22;20197;-83
2022/11/06 08:22:33;;;;;;;5.07;2.72;;;;;;;9.07;95.65;100992.38;6269087;22;20003;-84
2022/11/06 08:24:59;;;;;;;7.75;2.97;;;;;;;9.14;95.65;100993.84;6271150;22;20150;-83
2022/11/06 08:27:24;;;;;;;5.00;3.03;;;;;;;9.30;95.29;100981.63;6271091;22;20440;-84
2022/11/06 08:29:49;;;;;;;6.85;2.80;;;;;;;9.61;94.55;100988.25;6270657;22;20077;-83
2022/11/06 08:32:15;;;;;;;5.97;2.75;;;;;;;9.94;92.91;100983.22;6269430;22;20039;-82
2022/11/06 08:34:41;;;;;;;6.75;2.55;;;;;;;10.06;91.83;100979.97;6271191;22;20421;-83
2022/11/06 08:37:08;;;;;;;8.65;3.03;;;;;;;10.09;90.69;100979.84;6267491;22;20058;-82
2022/11/06 08:39:33;;;;;;;5.40;2.47;;;;;;;10.11;91.50;100979.78;6268322;22;19999;-83
2022/11/06 08:41:58;;;;;;;5.53;2.55;;;;;;;10.20;90.95;100961.59;6271863;22;20011;-83
2022/11/06 08:44:23;;;;;;;7.15;2.92;;;;;;;10.33;90.67;100969.03;6271954;22;20757;-84
2022/11/06 08:46:49;;;;;;;4.68;2.60;;;;;;;10.48;89.49;100968.28;6270578;22;20103;-83
2022/11/06 08:49:14;;;;;;;5.72;2.28;;;;;;;10.62;87.79;100955.16;6268466;22;20007;-83
2022/11/06 08:51:39;;;;;;;7.40;3.00;;;;;;;10.75;87.89;100951.91;6269933;22;20092;-84
2022/11/06 08:54:05;;;;;;;6.60;2.67;;;;;;;10.75;86.88;100951.91;6270303;22;20050;-83
2022/11/06 08:56:30;;;;;;;7.10;2.65;;;;;;;10.80;87.31;100950.72;6272591;22;19999;-84
2022/11/06 08:58:55;;;;;;;3.95;2.65;;;;;;;10.93;86.45;100950.97;6269039;22;20049;-84
2022/11/06 09:01:22;;;;;;;6.60;2.25;;;;;;;11.18;85.35;100939.94;6270582;22;20031;-84
2022/11/06 09:03:48;;;;;;;6.65;2.65;;;;;;;11.25;84.10;100943.16;6272949;22;20172;-83
2022/11/06 09:06:13;;;;;;;3.92;2.30;;;;;;;11.28;84.57;100946.47;6272229;22;20003;-82
2022/11/06 09:08:38;;;;;;;6.40;2.47;;;;;;;11.44;84.18;100941.22;6271234;22;20106;-82
2022/11/06 09:11:06;;;;;;;4.82;2.30;;;;;;;11.61;82.58;100935.84;6270963;22;20000;-84
2022/11/06 09:13:31;;;;;;;6.78;2.70;;;;;;;11.62;82.26;100928.69;6271367;22;20015;-84
2022/11/06 09:15:58;;;;;;;6.85;3.00;;;;;;;11.51;82.52;100929.28;6268427;22;20008;-84
2022/11/06 09:18:24;;;;;;;5.85;2.28;;;;;;;11.50;82.06;100930.25;6266937;22;20073;-83
2022/11/06 09:20:53;;;;;;;4.95;2.38;;;;;;;11.57;82.61;100920.97;6270593;22;20418;-83
2022/11/06 09:23:18;;;;;;;4.55;2.30;;;;;;;11.71;81.29;100910.44;6270303;22;20049;-83
2022/11/06 09:25:43;;;;;;;6.40;2.20;;;;;;;11.85;80.44;100914.16;6272013;22;20003;-83
2022/11/06 09:28:09;;;;;;;6.13;2.60;;;;;;;11.89;79.68;100894.38;6270781;22;20014;-82
2022/11/06 09:30:34;;;;;;;5.32;2.47;;;;;;;11.93;80.46;100896.78;6269176;22;20034;-82
2022/11/06 09:33:01;;;;;;;7.38;2.95;;;;;;;11.83;80.15;100887.59;6270795;22;20031;-82
2022/11/06 09:35:28;;;;;;;3.97;2.13;;;;;;;11.67;80.23;100884.88;6271672;22;20605;-82
2022/11/06 09:37:53;;;;;;;5.88;2.15;;;;;;;11.51;81.78;100883.97;6270230;22;20039;-82
2022/11/06 09:41:01;;;;;;;5.47;2.58;;;;;;;11.51;82.67;100883.97;6267621;22;20532;-82
2022/11/06 09:43:54;;;;;;;7.15;2.45;;;;;;;11.43;82.29;100878.19;6264953;22;20010;-82
2022/11/06 09:46:32;;;;;;;6.95;2.60;;;;;;;11.45;82.28;100889.63;6268391;22;20030;-81
2022/11/06 09:49:04;;;;;;;5.00;2.50;;;;;;;11.44;81.51;100883.44;6268519;22;20008;-83
2022/11/06 09:51:44;;;;;;;7.63;2.92;;;;;;;11.67;81.04;100890.22;6268614;22;20004;-83
2022/11/06 09:54:27;;;;;;;3.97;2.25;;;;;;;11.62;80.51;100891.38;6272016;22;20032;-83
2022/11/06 09:57:28;;;;;;;6.38;2.60;;;;;;;11.66;81.62;100887.59;6272406;22;20004;-83
2022/11/06 09:59:55;;;;;;;10.65;3.95;;;;;;;11.63;80.41;100891.31;6176000;23;20008;-83
2022/11/06 10:02:29;;;;;;;6.30;2.70;;;;;;;11.71;79.29;100882.91;6175038;23;20005;-81
2022/11/06 10:05:04;;;;;;;8.43;4.15;;;;;;;11.75;80.00;100889.78;6176527;23;20045;-82
2022/11/06 10:07:35;;;;;;;6.57;2.60;;;;;;;11.91;79.81;100893.38;6181993;23;20009;-83
2022/11/06 10:10:05;;;;;;;7.97;4.32;;;;;;;11.96;78.23;100898.44;6175731;23;20084;-83
2022/11/06 10:12:51;;;;;;;8.60;3.25;;;;;;;11.91;79.14;100888.03;6173461;23;20505;-83
2022/11/06 10:15:22;;;;;;;6.47;3.00;;;;;;;11.82;78.03;100883.16;6175415;23;20013;-84
2022/11/06 10:18:25;;;;;;;8.90;4.05;;;;;;;11.73;79.17;100886.34;6175266;23;20009;-82
2022/11/06 10:21:07;;;;;;;10.05;5.85;;;;;;;11.62;78.92;100875.38;6179163;23;20016;-82
2022/11/06 10:23:49;;;;;;;8.45;3.45;;;;;;;11.56;79.85;100862.41;6176775;23;20059;-82
2022/11/06 10:26:22;;;;;;;8.95;4.40;;;;;;;11.57;79.38;100856.97;6174062;23;20091;-83
2022/11/06 10:29:22;;;;;;;7.30;5.65;;;;;;;11.67;78.50;100868.88;6148766;23;20012;-82
2022/11/06 10:31:57;;;;;;;9.48;5.60;;;;;;;11.66;77.56;100853.84;6177025;23;20100;-83
2022/11/06 10:34:30;;;;;;;7.03;4.50;;;;;;;11.67;77.50;100846.69;6243822;22;20065;-83
2022/11/06 10:37:10;;;;;;;6.38;3.40;;;;;;;11.72;77.36;100856.16;6264244;22;20460;-83
2022/11/06 10:39:36;;;;;;;7.47;3.60;;;;;;;11.81;76.67;100843.25;6268976;22;20190;-83
2022/11/06 10:42:04;;;;;;;6.53;2.85;;;;;;;11.87;76.60;100853.59;6269897;22;20503;-83
2022/11/06 10:44:42;;;;;;;6.30;2.08;;;;;;;11.99;77.05;100833.38;6268440;22;20007;-82
2022/11/06 10:47:53;;;;;;;12.85;4.80;;;;;;;12.17;77.08;100830.53;6271056;22;20024;-83
2022/11/06 10:50:19;;;;;;;6.40;3.30;;;;;;;12.24;73.94;100830.16;6264968;22;20031;-82
2022/11/06 10:52:57;;;;;;;7.65;3.78;;;;;;;12.24;74.95;100828.34;6270646;22;20011;-82
2022/11/06 10:55:47;;;;;;;11.13;8.95;;;;;;;12.34;75.60;100813.53;6268726;22;20033;-83
2022/11/06 10:58:15;;;;;;;10.07;4.85;;;;;;;12.32;73.47;100810.06;6267744;22;20069;-82
2022/11/06 11:00:41;;;;;;;5.63;2.50;;;;;;;12.35;74.03;100799.22;6270611;22;20031;-82
2022/11/06 11:03:18;;;;;;;5.82;2.40;;;;;;;12.45;74.09;100787.03;6269895;22;20346;-83
2022/11/06 11:05:44;;;;;;;13.63;9.63;;;;;;;12.56;72.36;100794.44;6269531;22;20011;-82
2022/11/06 11:08:27;;;;;;;10.23;5.55;;;;;;;12.70;73.67;100782.91;6269098;22;20428;-82
2022/11/06 11:11:00;;;;;;;11.52;6.15;;;;;;;12.77;72.22;100781.59;6269220;22;20007;-82
2022/11/06 11:13:25;;;;;;;9.70;6.38;;;;;;;12.77;70.42;100772.72;6270016;22;20544;-82
2022/11/06 11:15:51;;;;;;;15.27;9.85;;;;;;;12.80;69.76;100776.06;6271621;22;20011;-81
2022/11/06 11:18:30;;;;;;;7.45;3.50;;;;;;;12.70;71.80;100781.09;6268944;22;20061;-82
2022/11/06 11:21:24;;;;;;;8.43;5.68;;;;;;;12.47;71.94;100776.28;6268889;22;20011;-82
2022/11/06 11:24:10;;;;;;;12.98;7.38;;;;;;;12.17;72.98;100776.31;6269596;22;20022;-81
2022/11/06 11:26:45;;;;;;;9.00;3.55;;;;;;;11.85;72.53;100762.16;6269367;22;20000;-83
2022/11/06 11:29:15;;;;;;;13.88;7.82;;;;;;;11.67;72.26;100761.38;6269585;22;20018;-82
2022/11/06 11:31:46;;;;;;;8.70;3.15;;;;;;;11.51;72.35;100756.03;6269768;22;19999;-81
2022/11/06 11:34:27;;;;;;;7.65;2.83;;;;;;;11.37;72.77;100740.84;6269739;22;20004;-80
2022/11/06 11:37:04;;;;;;;7.72;2.20;;;;;;;11.35;74.08;100744.50;6269942;22;20008;-81
2022/11/06 11:39:43;;;;;;;7.18;2.42;;;;;;;11.23;73.82;100738.06;6269685;22;20444;-82
2022/11/06 11:42:22;;;;;;;4.70;2.45;;;;;;;11.20;74.15;100748.88;6266727;22;20339;-81
2022/11/06 11:45:05;;;;;;;4.90;2.45;;;;;;;11.16;74.65;100749.97;6268919;22;20378;-81
2022/11/06 11:47:30;;;;;;;5.63;2.93;;;;;;;11.17;73.36;100752.59;6271522;22;20098;-81
2022/11/06 11:49:55;;;;;;;17.85;10.98;;;;;;;11.31;73.95;100748.28;6269207;22;20090;-81
2022/11/06 11:52:21;;;;;;;6.40;3.47;;;;;;;11.49;73.10;100733.94;6267864;22;20118;-80
2022/11/06 11:54:51;;;;;;;10.20;6.15;;;;;;;11.63;72.36;100733.16;6268161;22;20022;-81